KLM995 KORD-EHAM
Flight info
| Callsign | KLM995 |
|---|---|
| Flight time | N/A |
| Altitude | 37000 |
| Route | RAYNR DCT BRTMN DCT TAAYZ DCT PECOK DCT NOTAP DCT NAGNO DCT ANCER N749A LOMSI/M084F390 DCT 55N050W 57N040W 58N030W 58N020W DCT SUNOT DCT KESIX/N0475F410 DCT IBROD DCT ERKIT N110 DOLAS L603 LAMSO |
| Aircraft | B772/H-SDE2E3FGHIJ5LORVWXY/LB1D1 |
Departure
| Time | N/A |
|---|---|
| Airport | Chicago O'Hare International Airport (KORD) |
Arrival
| Time | 2026-04-28 14:42 |
|---|---|
| Airport | Amsterdam Airport Schiphol (EHAM) |
| Time | Latitude | Longitude | Altitude | Speed | Heading |
|---|---|---|---|---|---|
| 2026-04-28 14:11 | 53.12546 | 0.68761 | 41005 ft | 506 kts | 128° |
| 2026-04-28 14:11 | 53.10394 | 0.73389 | 41003 ft | 506 kts | 128° |
| 2026-04-28 14:11 | 53.06079 | 0.82643 | 41826 ft | 502 kts | 125° |
| 2026-04-28 14:12 | 53.03965 | 0.87163 | 41600 ft | 489 kts | 125° |
| 2026-04-28 14:12 | 53.01887 | 0.91601 | 41501 ft | 485 kts | 125° |
| 2026-04-28 14:12 | 52.98434 | 1.01055 | 41405 ft | 475 kts | 111° |
| 2026-04-28 14:13 | 52.96451 | 1.11405 | 41384 ft | 467 kts | 99° |
| 2026-04-28 14:13 | 52.95259 | 1.22003 | 41391 ft | 471 kts | 98° |
| 2026-04-28 14:14 | 52.94076 | 1.32734 | 41386 ft | 476 kts | 98° |
| 2026-04-28 14:14 | 52.92831 | 1.43509 | 41385 ft | 480 kts | 99° |
| 2026-04-28 14:15 | 52.91531 | 1.54447 | 41381 ft | 482 kts | 99° |
| 2026-04-28 14:15 | 52.90227 | 1.65287 | 41374 ft | 484 kts | 99° |
| 2026-04-28 14:16 | 52.88915 | 1.76108 | 41369 ft | 476 kts | 99° |
| 2026-04-28 14:16 | 52.87606 | 1.86847 | 41345 ft | 475 kts | 99° |
| 2026-04-28 14:17 | 52.86951 | 1.92187 | 41229 ft | 470 kts | 99° |
| 2026-04-28 14:17 | 52.86302 | 1.97453 | 40930 ft | 464 kts | 99° |
| 2026-04-28 14:17 | 52.85660 | 2.02653 | 40459 ft | 460 kts | 99° |
| 2026-04-28 14:17 | 52.85018 | 2.07827 | 39848 ft | 457 kts | 99° |
| 2026-04-28 14:18 | 52.84382 | 2.12938 | 39157 ft | 448 kts | 99° |
| 2026-04-28 14:18 | 52.83760 | 2.17895 | 38259 ft | 430 kts | 99° |
| 2026-04-28 14:18 | 52.83162 | 2.22641 | 37369 ft | 413 kts | 98° |
| 2026-04-28 14:18 | 52.82587 | 2.27205 | 36530 ft | 397 kts | 98° |
| 2026-04-28 14:19 | 52.82032 | 2.31598 | 35694 ft | 383 kts | 98° |
| 2026-04-28 14:19 | 52.81491 | 2.35886 | 34928 ft | 383 kts | 97° |
| 2026-04-28 14:19 | 52.80946 | 2.40227 | 34166 ft | 389 kts | 97° |
| 2026-04-28 14:19 | 52.80389 | 2.44647 | 33203 ft | 408 kts | 97° |
| 2026-04-28 14:20 | 52.79791 | 2.49361 | 32172 ft | 427 kts | 98° |
| 2026-04-28 14:20 | 52.79170 | 2.54174 | 31103 ft | 428 kts | 98° |
| 2026-04-28 14:20 | 52.78547 | 2.58945 | 30317 ft | 422 kts | 98° |
| 2026-04-28 14:20 | 52.77932 | 2.63655 | 29410 ft | 416 kts | 98° |
| 2026-04-28 14:21 | 52.77326 | 2.68303 | 28582 ft | 410 kts | 98° |
| 2026-04-28 14:21 | 52.76731 | 2.72877 | 27812 ft | 404 kts | 98° |
| 2026-04-28 14:21 | 52.76142 | 2.77381 | 27057 ft | 399 kts | 98° |
| 2026-04-28 14:21 | 52.75559 | 2.81841 | 26293 ft | 396 kts | 99° |
| 2026-04-28 14:22 | 52.74887 | 2.86260 | 25484 ft | 399 kts | 104° |
| 2026-04-28 14:22 | 52.74029 | 2.90668 | 24923 ft | 406 kts | 105° |
| 2026-04-28 14:22 | 52.73132 | 2.95128 | 24487 ft | 409 kts | 105° |
| 2026-04-28 14:22 | 52.72234 | 2.99571 | 23772 ft | 409 kts | 105° |
| 2026-04-28 14:23 | 52.71340 | 3.04004 | 22919 ft | 405 kts | 106° |
| 2026-04-28 14:23 | 52.70469 | 3.08343 | 22158 ft | 400 kts | 106° |
| 2026-04-28 14:23 | 52.69601 | 3.12688 | 21418 ft | 396 kts | 106° |
| 2026-04-28 14:23 | 52.68745 | 3.16979 | 20688 ft | 393 kts | 106° |
| 2026-04-28 14:24 | 52.67894 | 3.21244 | 19963 ft | 390 kts | 106° |
| 2026-04-28 14:24 | 52.67052 | 3.25461 | 19278 ft | 387 kts | 107° |
| 2026-04-28 14:24 | 52.66211 | 3.29671 | 18593 ft | 385 kts | 107° |
| 2026-04-28 14:24 | 52.65374 | 3.33845 | 17831 ft | 382 kts | 107° |
| 2026-04-28 14:25 | 52.64543 | 3.37982 | 17127 ft | 379 kts | 107° |
| 2026-04-28 14:25 | 52.63716 | 3.42087 | 16453 ft | 375 kts | 107° |
| 2026-04-28 14:25 | 52.62910 | 3.46080 | 15812 ft | 371 kts | 107° |
| 2026-04-28 14:25 | 52.62096 | 3.50104 | 15161 ft | 368 kts | 107° |
| 2026-04-28 14:26 | 52.61298 | 3.54045 | 14559 ft | 365 kts | 107° |
| 2026-04-28 14:26 | 52.60494 | 3.58005 | 13920 ft | 363 kts | 107° |
| 2026-04-28 14:26 | 52.59697 | 3.61926 | 13238 ft | 359 kts | 107° |
| 2026-04-28 14:26 | 52.58942 | 3.65621 | 12615 ft | 324 kts | 107° |
| 2026-04-28 14:27 | 52.58252 | 3.68993 | 12090 ft | 303 kts | 107° |
| 2026-04-28 14:27 | 52.57574 | 3.72316 | 11561 ft | 310 kts | 107° |
| 2026-04-28 14:27 | 52.56885 | 3.75690 | 11142 ft | 313 kts | 107° |
| 2026-04-28 14:27 | 52.56196 | 3.79048 | 10998 ft | 304 kts | 107° |
| 2026-04-28 14:28 | 52.55534 | 3.82271 | 10725 ft | 297 kts | 107° |
| 2026-04-28 14:28 | 52.54876 | 3.85471 | 10330 ft | 295 kts | 107° |
| 2026-04-28 14:28 | 52.54225 | 3.88633 | 9977 ft | 290 kts | 107° |
| 2026-04-28 14:28 | 52.53577 | 3.91768 | 9515 ft | 289 kts | 107° |
| 2026-04-28 14:29 | 52.52933 | 3.94879 | 9152 ft | 285 kts | 107° |
| 2026-04-28 14:29 | 52.52292 | 3.97919 | 8991 ft | 275 kts | 109° |
| 2026-04-28 14:29 | 52.51604 | 4.00818 | 8982 ft | 272 kts | 110° |
| 2026-04-28 14:29 | 52.50886 | 4.03738 | 8894 ft | 284 kts | 110° |
| 2026-04-28 14:30 | 52.50118 | 4.06845 | 8569 ft | 301 kts | 110° |
| 2026-04-28 14:30 | 52.49332 | 4.10025 | 8225 ft | 303 kts | 110° |
| 2026-04-28 14:30 | 52.48443 | 4.13119 | 7817 ft | 297 kts | 122° |
| 2026-04-28 14:30 | 52.46987 | 4.15512 | 7449 ft | 296 kts | 140° |
| 2026-04-28 14:31 | 52.45322 | 4.17464 | 7093 ft | 293 kts | 142° |
| 2026-04-28 14:31 | 52.43661 | 4.19362 | 6712 ft | 290 kts | 142° |
| 2026-04-28 14:31 | 52.42010 | 4.21237 | 6320 ft | 288 kts | 142° |
| 2026-04-28 14:31 | 52.40392 | 4.23064 | 5925 ft | 278 kts | 142° |
| 2026-04-28 14:32 | 52.38840 | 4.24793 | 5496 ft | 255 kts | 142° |
| 2026-04-28 14:32 | 52.37551 | 4.26210 | 5133 ft | 239 kts | 142° |
| 2026-04-28 14:32 | 52.36341 | 4.27526 | 4765 ft | 227 kts | 142° |
| 2026-04-28 14:32 | 52.35051 | 4.28914 | 4349 ft | 217 kts | 142° |
| 2026-04-28 14:33 | 52.33784 | 4.30260 | 3987 ft | 221 kts | 142° |
| 2026-04-28 14:33 | 52.32475 | 4.31649 | 3645 ft | 230 kts | 142° |
| 2026-04-28 14:33 | 52.31118 | 4.33082 | 3262 ft | 234 kts | 142° |
| 2026-04-28 14:33 | 52.29742 | 4.34522 | 3010 ft | 233 kts | 142° |
| 2026-04-28 14:34 | 52.29218 | 4.35064 | 3004 ft | 227 kts | 142° |
| 2026-04-28 14:34 | 52.28215 | 4.36090 | 2996 ft | 218 kts | 142° |
| 2026-04-28 14:34 | 52.27393 | 4.36919 | 2992 ft | 210 kts | 142° |
| 2026-04-28 14:35 | 52.25792 | 4.38506 | 2983 ft | 192 kts | 142° |
| 2026-04-28 14:35 | 52.24676 | 4.39590 | 2993 ft | 184 kts | 142° |
| 2026-04-28 14:35 | 52.23574 | 4.40651 | 2999 ft | 184 kts | 142° |
| 2026-04-28 14:35 | 52.22464 | 4.41706 | 2998 ft | 186 kts | 142° |
| 2026-04-28 14:36 | 52.21358 | 4.42824 | 2817 ft | 185 kts | 134° |
| 2026-04-28 14:36 | 52.20595 | 4.44392 | 2526 ft | 174 kts | 116° |
| 2026-04-28 14:36 | 52.19793 | 4.45924 | 2190 ft | 179 kts | 120° |
| 2026-04-28 14:36 | 52.19338 | 4.47664 | 1948 ft | 161 kts | 83° |
| 2026-04-28 14:37 | 52.19685 | 4.49326 | 1925 ft | 158 kts | 62° |
| 2026-04-28 14:37 | 52.20206 | 4.50953 | 1913 ft | 164 kts | 61° |
| 2026-04-28 14:37 | 52.20775 | 4.52555 | 1912 ft | 161 kts | 59° |
| 2026-04-28 14:37 | 52.21354 | 4.54092 | 1909 ft | 158 kts | 59° |
| 2026-04-28 14:38 | 52.21934 | 4.55607 | 1916 ft | 157 kts | 58° |
| 2026-04-28 14:38 | 52.22543 | 4.57124 | 1934 ft | 164 kts | 56° |
| 2026-04-28 14:38 | 52.23146 | 4.58706 | 1917 ft | 158 kts | 59° |
| 2026-04-28 14:38 | 52.23698 | 4.60179 | 1898 ft | 143 kts | 58° |
| 2026-04-28 14:39 | 52.24235 | 4.61579 | 1747 ft | 148 kts | 59° |
| 2026-04-28 14:39 | 52.24762 | 4.62948 | 1568 ft | 138 kts | 59° |
| 2026-04-28 14:39 | 52.25260 | 4.64244 | 1368 ft | 132 kts | 59° |
| 2026-04-28 14:39 | 52.25714 | 4.65418 | 1225 ft | 116 kts | 59° |
| 2026-04-28 14:40 | 52.26125 | 4.66488 | 1077 ft | 107 kts | 58° |
| 2026-04-28 14:40 | 52.26257 | 4.66832 | 1035 ft | 107 kts | 58° |
| 2026-04-28 14:40 | 52.26922 | 4.68569 | 790 ft | 107 kts | 57° |
| 2026-04-28 14:40 | 52.27321 | 4.69607 | 651 ft | 110 kts | 56° |
| 2026-04-28 14:41 | 52.27745 | 4.70706 | 520 ft | 118 kts | 56° |
| 2026-04-28 14:41 | 52.28194 | 4.71838 | 374 ft | 119 kts | 56° |
| 2026-04-28 14:41 | 52.28630 | 4.73003 | 162 ft | 120 kts | 57° |
| 2026-04-28 14:41 | 52.29065 | 4.74139 | 24 ft | 115 kts | 56° |
| 2026-04-28 14:42 | 52.29446 | 4.75110 | 2 ft | 88 kts | 57° |
| 2026-04-28 14:42 | 52.29704 | 4.75791 | 2 ft | 53 kts | 58° |
| 2026-04-28 14:42 | 52.29869 | 4.76214 | 1 ft | 44 kts | 57° |
| 2026-04-28 14:42 | 52.30041 | 4.76547 | 3 ft | 29 kts | 33° |
| 2026-04-28 14:43 | 52.30147 | 4.76643 | 3 ft | 12 kts | 28° |
| 2026-04-28 14:43 | 52.30193 | 4.76683 | 3 ft | 0 kts | 28° |
| 2026-04-28 14:43 | 52.30223 | 4.76709 | 3 ft | 9 kts | 28° |
| 2026-04-28 14:44 | 52.30282 | 4.76763 | 3 ft | 12 kts | 38° |
| 2026-04-28 14:44 | 52.30330 | 4.76869 | 3 ft | 24 kts | 59° |
| 2026-04-28 14:44 | 52.30423 | 4.77112 | 3 ft | 24 kts | 59° |
| 2026-04-28 14:44 | 52.30502 | 4.77327 | 3 ft | 22 kts | 59° |
| 2026-04-28 14:45 | 52.30585 | 4.77529 | 3 ft | 21 kts | 51° |
| 2026-04-28 14:45 | 52.30720 | 4.77593 | 3 ft | 21 kts | 3° |
| 2026-04-28 14:45 | 52.30864 | 4.77608 | 3 ft | 21 kts | 2° |
| 2026-04-28 14:45 | 52.31009 | 4.77621 | 3 ft | 21 kts | 4° |
| 2026-04-28 14:46 | 52.31153 | 4.77635 | 3 ft | 21 kts | 3° |
| 2026-04-28 14:46 | 52.31298 | 4.77648 | 3 ft | 21 kts | 3° |
| 2026-04-28 14:46 | 52.31441 | 4.77641 | 5 ft | 21 kts | 343° |
| 2026-04-28 14:46 | 52.31521 | 4.77539 | 3 ft | 21 kts | 313° |
| 2026-04-28 14:47 | 52.31576 | 4.77323 | 3 ft | 21 kts | 271° |
| 2026-04-28 14:47 | 52.31570 | 4.77155 | 3 ft | 20 kts | 266° |
| 2026-04-28 14:47 | 52.31561 | 4.76836 | 3 ft | 34 kts | 267° |
| 2026-04-28 14:47 | 52.31508 | 4.76664 | 3 ft | 12 kts | 191° |
| 2026-04-28 14:48 | 52.31427 | 4.76648 | 3 ft | 12 kts | 163° |
| 2026-04-28 14:48 | 52.31395 | 4.76700 | 3 ft | 4 kts | 126° |
| 2026-04-28 14:48 | 52.31377 | 4.76740 | 3 ft | 0 kts | 125° |